Date,TemperatureHighF,TemperatureAvgF,TemperatureLowF,DewpointHighF,DewpointAvgF,DewpointLowF,HumidityHigh,HumidityAvg,HumidityLow,PressureMaxIn,PressureMinIn,WindSpeedMaxMPH,WindSpeedAvgMPH,GustSpeedMaxMPH,PrecipitationSumIn
2012-12-1,57.2,47.2,37.9,49.7,42.2,34.9,94,83,71,30.21,29.96,0,0,0,0.03
2012-12-2,56.6,54.7,51.7,54.6,51.4,48.5,95,89,79,30.04,29.87,0,0,0,0.14
2012-12-3,61.9,55.8,49.9,59.5,53.8,47.8,100,93,83,30.06,29.86,0,0,0,0.00
2012-12-4,61.3,52.1,43.2,56.4,47.0,36.1,92,83,74,30.07,29.85,0,0,0,0.13
2012-12-5,43.0,35.2,29.6,36.0,26.1,22.5,79,69,53,30.37,30.07,0,0,0,0.00
2012-12-6,39.1,32.9,27.0,32.1,27.4,22.4,85,80,69,30.31,29.93,0,0,0,0.00
2012-12-7,43.4,40.7,36.3,41.8,38.1,31.7,96,90,82,29.94,29.82,0,0,0,0.07
2012-12-8,42.0,39.1,35.2,40.9,37.1,31.2,96,93,85,30.11,29.76,0,0,0,0.18
2012-12-9,41.1,37.6,35.1,40.3,35.1,31.1,97,91,83,30.12,29.60,0,0,0,0.09
2012-12-10,42.4,39.2,32.6,41.4,35.1,26.8,97,85,77,29.83,29.58,0,0,0,0.00
2012-12-11,39.9,32.3,28.7,30.1,25.5,23.1,88,76,57,30.14,29.81,0,0,0,0.00
2012-12-12,44.4,34.3,27.1,32.3,27.3,23.5,88,76,59,30.34,30.14,0,0,0,0.00
2012-12-13,45.3,36.9,29.5,32.3,28.6,24.6,84,72,54,30.34,30.13,0,0,0,0.00
2012-12-14,49.0,38.1,30.9,36.5,30.7,26.2,86,75,58,30.22,30.12,0,0,0,0.00
2012-12-15,46.0,38.8,33.1,43.3,35.5,31.3,95,88,75,30.12,29.63,0,0,0,0.06
2012-12-16,52.2,49.3,43.5,50.1,46.4,38.8,96,90,82,29.64,29.53,0,0,0,0.18
2012-12-17,43.4,41.3,38.6,40.2,36.7,34.6,89,84,78,29.69,29.56,0,0,0,0.00
2012-12-18,42.0,37.9,33.5,35.8,33.3,29.5,94,84,67,29.74,29.59,0,0,0,0.08
2012-12-19,40.9,38.3,36.3,36.4,35.0,33.7,95,88,79,30.08,29.67,0,0,0,0.00
2012-12-20,47.9,40.1,34.8,46.5,38.0,32.3,100,92,81,30.00,29.10,0,0,0,0.80
2012-12-21,35.7,33.8,32.4,33.7,29.8,25.3,94,85,73,29.86,29.11,0,0,0,0.02
2012-12-22,38.7,32.4,27.1,27.8,25.0,22.5,84,74,61,30.07,29.87,0,0,0,0.00
2012-12-23,40.1,29.3,23.2,29.8,23.7,20.2,92,80,60,30.00,29.87,0,0,0,0.00
2012-12-24,33.9,29.9,25.6,29.9,25.8,21.2,92,85,79,29.97,29.76,0,0,0,0.00
2012-12-25,34.9,30.3,25.2,29.0,25.2,22.1,89,81,73,30.26,29.96,0,0,0,0.02
2012-12-26,31.5,29.1,26.4,27.1,25.5,23.6,95,86,75,30.21,29.77,0,0,0,0.00
2012-12-27,33.9,28.7,26.5,31.0,26.6,24.5,94,92,88,30.10,29.84,0,0,0,0.14
2012-12-28,30.7,25.9,20.4,28.2,23.5,18.2,93,91,88,30.16,29.88,0,0,0,0.01
2012-12-29,30.4,28.4,25.1,28.1,26.3,22.5,100,92,89,30.05,29.77,0,0,0,0.01
2012-12-30,30.0,25.3,21.3,27.8,21.9,17.2,99,87,81,30.30,30.05,0,0,0,0.00
2012-12-31,35.9,30.3,21.6,30.5,25.7,17.8,92,83,75,30.19,29.92,0,0,0,0.05